createdAt,value
2022-09-03T00:02:12.376Z,87.90
2022-09-03T00:04:57.364Z,87.10
2022-09-03T00:07:30.816Z,87.70
2022-09-03T00:10:02.985Z,87.70
2022-09-03T00:12:37.302Z,87.80
2022-09-03T00:15:07.121Z,88.10
2022-09-03T00:17:42.440Z,88.30
2022-09-03T00:20:17.912Z,88.50
2022-09-03T00:22:54.670Z,88.80
2022-09-03T00:25:33.796Z,89.00
2022-09-03T00:28:06.778Z,89.30
2022-09-03T00:30:35.100Z,89.40
2022-09-03T00:33:13.760Z,89.60
2022-09-03T00:35:50.377Z,89.70
2022-09-03T00:38:17.471Z,89.90
2022-09-03T00:41:08.618Z,90.00
2022-09-03T00:44:02.677Z,90.00
2022-09-03T00:46:49.028Z,90.10
2022-09-03T00:49:21.647Z,90.40
2022-09-03T00:52:11.396Z,90.00
2022-09-03T00:55:06.515Z,90.20
2022-09-03T00:57:57.902Z,90.30
2022-09-03T01:00:24.742Z,90.30
2022-09-03T01:03:09.325Z,90.40
2022-09-03T01:05:42.265Z,90.50
2022-09-03T01:08:32.257Z,90.60
2022-09-03T01:11:16.911Z,90.60
2022-09-03T01:14:06.461Z,90.80
2022-09-03T01:16:48.389Z,90.90
2022-09-03T01:19:35.610Z,90.90
2022-09-03T01:22:26.670Z,91.00
2022-09-03T01:25:11.931Z,90.90
2022-09-03T01:27:41.893Z,91.00
2022-09-03T01:30:18.432Z,91.10
2022-09-03T01:33:14.130Z,91.10
2022-09-03T01:35:48.368Z,91.00
2022-09-03T01:38:34.848Z,91.10
2022-09-03T01:41:24.916Z,91.40
2022-09-03T01:43:59.163Z,91.00
2022-09-03T01:46:30.370Z,91.10
2022-09-03T01:49:13.119Z,91.10
2022-09-03T01:51:41.461Z,91.10
2022-09-03T01:54:29.470Z,91.10
2022-09-03T01:57:05.035Z,91.20
2022-09-03T01:59:44.008Z,91.20
2022-09-03T02:02:31.702Z,91.30
2022-09-03T02:05:11.158Z,91.30
2022-09-03T02:07:44.002Z,91.30
2022-09-03T02:10:22.384Z,91.30
2022-09-03T02:12:54.691Z,91.30
2022-09-03T02:15:25.430Z,91.30
2022-09-03T02:17:57.052Z,91.40
2022-09-03T02:20:28.895Z,91.40
2022-09-03T02:22:58.036Z,91.50
2022-09-03T02:25:31.210Z,91.50
2022-09-03T02:27:58.100Z,91.60
2022-09-03T02:30:25.083Z,91.70
2022-09-03T02:32:51.896Z,91.70
2022-09-03T02:35:18.701Z,91.70
2022-09-03T02:37:45.509Z,91.70
2022-09-03T02:40:12.330Z,91.80
2022-09-03T02:42:39.301Z,91.90
2022-09-03T02:45:12.267Z,92.00
2022-09-03T02:47:43.180Z,92.00
2022-09-03T02:50:10.576Z,92.10
2022-09-03T02:52:37.443Z,92.10
2022-09-03T02:55:04.527Z,92.10
2022-09-03T02:57:31.699Z,92.10
2022-09-03T02:59:58.498Z,92.10
2022-09-03T03:02:25.363Z,92.10
2022-09-03T03:04:52.757Z,92.10
2022-09-03T03:07:19.591Z,92.20
2022-09-03T03:09:46.384Z,92.30
2022-09-03T03:12:13.452Z,92.30
2022-09-03T03:14:40.304Z,92.30
2022-09-03T03:17:07.158Z,92.30
2022-09-03T03:19:34.183Z,92.30
2022-09-03T03:22:01.179Z,92.40
2022-09-03T03:24:27.967Z,92.50
2022-09-03T03:26:58.269Z,92.50
2022-09-03T03:29:25.275Z,92.50
2022-09-03T03:31:52.511Z,92.60
2022-09-03T03:34:19.352Z,92.60
2022-09-03T03:36:46.119Z,92.60
2022-09-03T03:39:13.201Z,92.60
2022-09-03T03:41:40.086Z,92.60
2022-09-03T03:44:08.564Z,92.60
2022-09-03T03:46:37.817Z,92.70
2022-09-03T03:49:06.687Z,92.90
2022-09-03T03:51:34.955Z,93.20
2022-09-03T03:54:04.984Z,92.90
2022-09-03T03:56:33.599Z,93.00
2022-09-03T03:59:00.628Z,93.10
2022-09-03T04:01:28.501Z,93.20
2022-09-03T04:03:56.687Z,93.30
2022-09-03T04:06:23.790Z,93.40
2022-09-03T04:08:51.223Z,93.90
2022-09-03T04:11:21.711Z,93.80
2022-09-03T04:13:49.733Z,93.90
2022-09-03T04:16:19.741Z,94.00
2022-09-03T04:18:49.185Z,94.20
2022-09-03T04:21:21.148Z,94.40
2022-09-03T04:23:49.484Z,94.60
2022-09-03T04:26:19.337Z,94.80
2022-09-03T04:28:46.308Z,95.10
2022-09-03T04:31:19.632Z,95.30
2022-09-03T04:33:46.859Z,95.50
2022-09-03T04:36:22.690Z,95.70
2022-09-03T04:38:51.432Z,96.00
2022-09-03T04:41:24.975Z,96.40
2022-09-03T04:43:52.996Z,96.40
2022-09-03T04:46:21.372Z,96.80
2022-09-03T04:48:53.034Z,96.90
2022-09-03T04:51:22.451Z,97.10
2022-09-03T04:53:54.573Z,97.30
2022-09-03T04:56:23.927Z,97.70
2022-09-03T04:58:55.714Z,97.90
2022-09-03T05:01:24.754Z,98.00
2022-09-03T05:03:54.344Z,98.20
2022-09-03T05:06:21.156Z,98.50
2022-09-03T05:08:52.903Z,98.70
2022-09-03T05:11:21.293Z,99.10
2022-09-03T05:13:49.865Z,99.20
2022-09-03T05:16:17.868Z,99.30
2022-09-03T05:18:46.880Z,99.50
2022-09-03T05:21:16.514Z,99.70
2022-09-03T05:23:45.622Z,99.90
2022-09-03T05:26:15.565Z,99.90
2022-09-03T05:28:44.153Z,99.90
2022-09-03T05:31:12.303Z,99.90
2022-09-03T05:33:42.432Z,99.90
2022-09-03T05:36:12.285Z,99.90
2022-09-03T05:38:39.809Z,99.90
2022-09-03T05:41:09.288Z,99.90
2022-09-03T05:43:36.885Z,99.90
2022-09-03T05:46:18.600Z,99.90
2022-09-03T05:48:45.622Z,99.90
2022-09-03T05:51:17.530Z,99.90
2022-09-03T05:53:46.516Z,99.90
2022-09-03T05:56:24.141Z,99.90
2022-09-03T05:58:53.500Z,99.90
2022-09-03T06:01:31.783Z,99.90
2022-09-03T06:04:05.749Z,99.90
2022-09-03T06:06:35.803Z,99.90
2022-09-03T06:09:05.904Z,99.90
2022-09-03T06:11:35.377Z,99.90
2022-09-03T06:14:05.869Z,99.90
2022-09-03T06:16:35.192Z,99.90
2022-09-03T06:19:03.709Z,99.90
2022-09-03T06:21:30.538Z,99.90
2022-09-03T06:23:59.799Z,99.90
2022-09-03T06:26:29.690Z,99.90
2022-09-03T06:28:57.438Z,99.90
2022-09-03T06:31:25.286Z,99.90
2022-09-03T06:33:54.524Z,99.90
2022-09-03T06:36:22.682Z,99.90
2022-09-03T06:38:52.474Z,99.90
2022-09-03T06:41:24.927Z,99.90
2022-09-03T06:44:04.265Z,99.90
2022-09-03T06:46:33.430Z,99.90
2022-09-03T06:49:00.527Z,99.90
2022-09-03T06:51:29.290Z,99.90
2022-09-03T06:54:03.311Z,99.90
2022-09-03T06:56:32.348Z,99.90
2022-09-03T06:59:05.371Z,99.90
2022-09-03T07:01:33.673Z,99.90
2022-09-03T07:04:03.523Z,99.90
2022-09-03T07:06:39.428Z,99.90
2022-09-03T07:09:07.425Z,99.90
2022-09-03T07:11:36.061Z,99.90
2022-09-03T07:14:04.968Z,99.90
2022-09-03T07:16:38.121Z,99.90
2022-09-03T07:19:06.040Z,99.90
2022-09-03T07:21:36.710Z,99.90
2022-09-03T07:24:05.597Z,99.90
2022-09-03T07:26:36.009Z,99.90
2022-09-03T07:29:02.943Z,99.90
2022-09-03T07:31:32.257Z,99.90
2022-09-03T07:34:10.137Z,99.90
2022-09-03T07:36:42.935Z,99.90
2022-09-03T07:39:14.363Z,99.90
2022-09-03T07:41:48.797Z,99.90
2022-09-03T07:44:19.546Z,99.60
2022-09-03T07:46:47.861Z,99.30
2022-09-03T07:49:15.133Z,99.10
2022-09-03T07:51:42.006Z,99.00
2022-09-03T07:54:11.349Z,98.70
2022-09-03T07:56:40.320Z,98.70
2022-09-03T07:59:07.964Z,98.80
2022-09-03T08:01:35.855Z,98.90
2022-09-03T08:04:04.334Z,98.80
2022-09-03T08:06:34.106Z,98.70
2022-09-03T08:09:05.327Z,98.20
2022-09-03T08:11:36.528Z,98.10
2022-09-03T08:14:08.632Z,97.70
2022-09-03T08:16:37.664Z,97.80
2022-09-03T08:19:05.174Z,95.90
2022-09-03T08:21:32.268Z,95.40
2022-09-03T08:24:08.023Z,93.20
2022-09-03T08:26:37.349Z,90.00
2022-09-03T08:29:05.212Z,80.00
2022-09-03T08:31:33.039Z,73.90
2022-09-03T08:34:06.795Z,67.00
2022-09-03T08:36:39.088Z,61.30
2022-09-03T08:39:10.878Z,59.40
2022-09-03T08:41:41.057Z,59.00
2022-09-03T08:44:49.485Z,59.10
2022-09-03T08:47:37.524Z,59.60
2022-09-03T08:50:23.724Z,56.70
2022-09-03T08:52:55.367Z,54.30
2022-09-03T08:55:53.768Z,53.60
2022-09-03T08:58:29.681Z,51.80
2022-09-03T09:01:13.159Z,50.00
2022-09-03T09:04:02.963Z,50.10
2022-09-03T09:06:36.032Z,50.90
2022-09-03T09:09:30.939Z,52.90
2022-09-03T09:12:21.856Z,54.90
2022-09-03T09:15:04.156Z,56.30
2022-09-03T09:18:01.317Z,55.70
2022-09-03T09:20:46.634Z,55.60
2022-09-03T09:23:34.917Z,53.90
2022-09-03T09:26:12.186Z,52.40
2022-09-03T09:28:39.592Z,50.00
2022-09-03T09:31:10.184Z,47.90
2022-09-03T09:33:37.715Z,47.20
2022-09-03T09:36:11.578Z,45.60
2022-09-03T09:38:39.648Z,44.20
2022-09-03T09:41:18.639Z,44.30
2022-09-03T09:43:49.324Z,43.90
2022-09-03T09:46:21.347Z,43.60
2022-09-03T09:48:51.849Z,41.90
2022-09-03T09:51:25.283Z,41.60
2022-09-03T09:54:01.557Z,41.20
2022-09-03T09:56:28.607Z,40.90
2022-09-03T09:59:15.418Z,40.50
2022-09-03T10:01:44.982Z,40.30
2022-09-03T10:04:33.401Z,40.20
2022-09-03T10:07:31.829Z,39.90
2022-09-03T10:10:20.972Z,40.10
2022-09-03T10:12:59.199Z,38.50
2022-09-03T10:15:45.134Z,38.30
2022-09-03T10:18:41.892Z,38.20
2022-09-03T10:21:15.636Z,37.70
2022-09-03T10:24:00.164Z,37.50
2022-09-03T10:26:32.405Z,37.10
2022-09-03T10:29:05.899Z,36.50
2022-09-03T10:31:44.707Z,37.30
2022-09-03T10:34:23.320Z,37.50
2022-09-03T10:37:18.444Z,36.90
2022-09-03T10:39:56.765Z,36.30
2022-09-03T10:43:12.231Z,36.90
2022-09-03T10:46:11.419Z,36.20
2022-09-03T10:48:54.042Z,35.70
2022-09-03T10:51:51.589Z,36.00
2022-09-03T10:54:43.178Z,35.20
2022-09-03T10:57:16.012Z,36.10
2022-09-03T11:00:03.957Z,35.60
2022-09-03T11:02:49.461Z,36.20
2022-09-03T11:05:22.148Z,35.10
2022-09-03T11:08:13.680Z,35.90
2022-09-03T11:11:09.399Z,36.50
2022-09-03T11:13:48.468Z,36.10
2022-09-03T11:16:22.769Z,34.70
2022-09-03T11:19:02.592Z,34.00
2022-09-03T11:21:31.610Z,34.30
2022-09-03T11:24:15.262Z,34.20
2022-09-03T11:26:59.853Z,34.70
2022-09-03T11:29:47.221Z,35.00
2022-09-03T11:32:40.815Z,34.40
2022-09-03T11:35:25.603Z,33.60
2022-09-03T11:38:31.251Z,34.20
2022-09-03T11:41:03.758Z,34.10
2022-09-03T11:43:35.775Z,33.70
2022-09-03T11:46:25.865Z,34.20
2022-09-03T11:49:09.304Z,33.90
2022-09-03T11:51:38.169Z,33.50
2022-09-03T11:54:14.116Z,33.50
2022-09-03T11:56:42.195Z,33.60
2022-09-03T11:59:17.226Z,33.20
2022-09-03T12:02:15.367Z,34.00
2022-09-03T12:05:11.661Z,34.00
2022-09-03T12:07:44.973Z,33.10
2022-09-03T12:10:20.388Z,33.30
2022-09-03T12:13:05.691Z,33.20
2022-09-03T12:16:08.614Z,33.30
2022-09-03T12:18:37.090Z,33.30
2022-09-03T12:21:08.420Z,32.10
2022-09-03T12:23:44.505Z,33.00
2022-09-03T12:26:24.574Z,33.00
2022-09-03T12:28:59.847Z,33.00
2022-09-03T12:31:30.118Z,33.10
2022-09-03T12:34:00.882Z,33.30
2022-09-03T12:36:54.052Z,33.00
2022-09-03T12:42:35.353Z,33.20
2022-09-03T12:45:07.263Z,33.30
2022-09-03T12:47:39.749Z,32.50
2022-09-03T12:50:08.790Z,32.50
2022-09-03T12:52:46.863Z,32.10
2022-09-03T12:55:28.675Z,32.90
2022-09-03T12:58:13.580Z,32.80
2022-09-03T13:00:56.514Z,32.90
2022-09-03T13:03:29.982Z,32.30
2022-09-03T13:06:09.206Z,32.50
2022-09-03T13:08:45.495Z,32.60
2022-09-03T13:11:20.349Z,32.00
2022-09-03T13:13:55.401Z,32.50
2022-09-03T13:16:46.364Z,33.10
2022-09-03T13:19:46.816Z,33.70
2022-09-03T13:22:56.073Z,33.30
2022-09-03T13:25:52.446Z,33.50
2022-09-03T13:28:29.840Z,33.90
2022-09-03T13:31:27.809Z,34.00
2022-09-03T13:34:12.146Z,34.30
2022-09-03T13:36:50.376Z,34.80
2022-09-03T13:39:25.383Z,34.20
2022-09-03T13:42:08.024Z,33.70
2022-09-03T13:45:06.706Z,33.70
2022-09-03T13:48:11.256Z,33.60
2022-09-03T13:50:46.134Z,33.40
2022-09-03T13:53:26.432Z,34.30
2022-09-03T13:55:57.833Z,34.40
2022-09-03T13:58:46.609Z,34.20
2022-09-03T14:02:10.806Z,34.40
2022-09-03T14:04:43.521Z,34.10
2022-09-03T14:07:18.784Z,34.50
2022-09-03T14:09:59.690Z,34.60
2022-09-03T14:12:46.671Z,34.60
2022-09-03T14:15:35.165Z,34.80
2022-09-03T14:18:23.756Z,34.80
2022-09-03T14:21:03.079Z,34.80
2022-09-03T14:23:51.306Z,35.60
2022-09-03T14:26:38.578Z,35.80
2022-09-03T14:29:12.393Z,36.10
2022-09-03T14:32:06.991Z,36.00
2022-09-03T14:34:44.747Z,36.70
2022-09-03T14:37:23.839Z,37.60
2022-09-03T14:40:13.610Z,38.70
2022-09-03T14:42:46.801Z,39.90
2022-09-03T14:45:25.407Z,41.00
2022-09-03T14:48:02.590Z,42.40
2022-09-03T14:50:43.351Z,43.10
2022-09-03T14:53:55.718Z,44.50
2022-09-03T14:56:40.745Z,44.90
2022-09-03T14:59:10.579Z,45.80
2022-09-03T15:01:39.333Z,46.50
2022-09-03T15:04:44.348Z,47.20
2022-09-03T15:07:44.409Z,47.20
2022-09-03T15:10:21.238Z,46.90
2022-09-03T15:12:59.647Z,47.60
2022-09-03T15:15:47.289Z,48.20
2022-09-03T15:18:29.751Z,49.10
2022-09-03T15:21:29.352Z,49.50
2022-09-03T15:24:24.340Z,49.20
2022-09-03T15:27:16.413Z,49.70
2022-09-03T15:30:19.257Z,50.50
2022-09-03T15:33:18.737Z,49.90
2022-09-03T15:35:58.018Z,50.10
2022-09-03T15:38:40.113Z,49.80
2022-09-03T15:41:40.214Z,50.20
2022-09-03T15:44:19.475Z,50.50
2022-09-03T15:47:12.190Z,50.70
2022-09-03T15:50:01.814Z,50.80
2022-09-03T15:52:53.511Z,51.20
2022-09-03T15:55:29.714Z,50.90
2022-09-03T15:58:10.415Z,51.00
2022-09-03T16:01:00.292Z,51.20
2022-09-03T16:03:46.866Z,51.60
2022-09-03T16:06:39.047Z,51.40
2022-09-03T16:09:22.515Z,51.70
2022-09-03T16:12:15.991Z,51.80
2022-09-03T16:15:04.613Z,52.10
2022-09-03T16:17:56.917Z,52.40
2022-09-03T16:20:48.096Z,52.90
2022-09-03T16:23:54.525Z,53.00
2022-09-03T16:26:32.047Z,53.30
2022-09-03T16:29:14.292Z,54.00
2022-09-03T16:32:01.894Z,54.20
2022-09-03T16:35:13.169Z,54.70
2022-09-03T16:37:45.957Z,54.70
2022-09-03T16:40:26.599Z,55.00
2022-09-03T16:43:39.543Z,55.20
2022-09-03T16:46:27.683Z,55.60
2022-09-03T16:49:12.601Z,55.90
2022-09-03T16:51:57.025Z,56.00
2022-09-03T16:54:58.678Z,55.90
2022-09-03T16:57:54.693Z,56.60
2022-09-03T17:00:22.126Z,56.90
2022-09-03T17:02:48.996Z,57.80
2022-09-03T17:05:45.901Z,57.20
2022-09-03T17:08:22.698Z,57.70
2022-09-03T17:11:00.547Z,57.60
2022-09-03T17:13:48.067Z,58.00
2022-09-03T17:16:37.286Z,58.30
2022-09-03T17:19:25.995Z,58.40
2022-09-03T17:21:59.270Z,58.60
2022-09-03T17:24:33.682Z,59.20
2022-09-03T17:27:32.694Z,59.40
2022-09-03T17:30:02.668Z,60.10
2022-09-03T17:32:57.347Z,60.20
2022-09-03T17:35:27.333Z,61.30
2022-09-03T17:38:09.249Z,61.20
2022-09-03T17:40:47.787Z,61.30
2022-09-03T17:43:23.785Z,62.60
2022-09-03T17:46:35.020Z,62.80
2022-09-03T17:49:06.903Z,63.20
2022-09-03T17:51:51.821Z,64.00
2022-09-03T17:54:32.316Z,64.10
2022-09-03T17:57:19.996Z,64.70
2022-09-03T18:00:05.975Z,64.70
2022-09-03T18:02:45.466Z,64.70
2022-09-03T18:05:19.321Z,65.00
2022-09-03T18:07:55.969Z,65.10
2022-09-03T18:10:30.055Z,65.60
2022-09-03T18:13:13.537Z,66.00
2022-09-03T18:15:57.372Z,66.70
2022-09-03T18:18:29.672Z,66.50
2022-09-03T18:21:25.567Z,66.70
2022-09-03T18:24:24.669Z,66.80
2022-09-03T18:27:17.173Z,67.00
2022-09-03T18:30:25.551Z,67.30
2022-09-03T18:33:11.020Z,67.60
2022-09-03T18:35:56.741Z,67.90
2022-09-03T18:38:45.242Z,68.20
2022-09-03T18:41:46.046Z,68.20
2022-09-03T18:45:21.673Z,68.70
2022-09-03T18:48:23.113Z,68.40
2022-09-03T18:51:24.290Z,68.70
2022-09-03T18:55:03.848Z,68.90
2022-09-03T18:57:50.679Z,68.60
2022-09-03T19:00:36.675Z,68.90
2022-09-03T19:03:34.103Z,69.00
2022-09-03T19:06:56.221Z,69.10
2022-09-03T19:09:53.221Z,69.30
2022-09-03T19:13:00.743Z,69.10
2022-09-03T19:16:00.842Z,68.80
2022-09-03T19:19:14.142Z,69.10
2022-09-03T19:22:09.844Z,69.30
2022-09-03T19:24:55.118Z,69.30
2022-09-03T19:27:57.249Z,69.50
2022-09-03T19:31:11.122Z,69.50
2022-09-03T19:34:27.518Z,69.60
2022-09-03T19:37:46.644Z,69.60
2022-09-03T19:41:08.700Z,69.80
2022-09-03T19:44:27.565Z,70.20
2022-09-03T19:47:19.344Z,70.00
2022-09-03T19:50:31.046Z,70.90
2022-09-03T19:53:23.497Z,70.30
2022-09-03T19:56:13.603Z,70.60
2022-09-03T19:59:06.725Z,71.50
2022-09-03T20:01:54.470Z,71.30
2022-09-03T20:04:48.349Z,71.50
2022-09-03T20:07:34.705Z,71.70
2022-09-03T20:10:23.494Z,71.80
2022-09-03T20:13:06.580Z,71.70
2022-09-03T20:15:59.341Z,71.10
2022-09-03T20:18:32.010Z,71.20
2022-09-03T20:21:27.541Z,71.40
2022-09-03T20:24:00.101Z,71.30
2022-09-03T20:26:37.215Z,71.30
2022-09-03T20:29:18.824Z,71.30
2022-09-03T20:31:52.984Z,71.50
2022-09-03T20:34:25.864Z,71.50
2022-09-03T20:37:01.699Z,71.80
2022-09-03T20:39:34.982Z,71.70
2022-09-03T20:42:40.864Z,71.80
2022-09-03T20:45:10.772Z,71.50
2022-09-03T20:48:23.790Z,71.80
2022-09-03T20:51:20.257Z,72.10
2022-09-03T20:54:13.389Z,72.20
2022-09-03T20:56:59.514Z,72.30
2022-09-03T20:59:33.943Z,72.50
2022-09-03T21:02:10.598Z,72.90
2022-09-03T21:05:13.003Z,73.00
2022-09-03T21:08:19.044Z,73.10
2022-09-03T21:10:57.145Z,73.20
2022-09-03T21:13:38.241Z,73.30
2022-09-03T21:16:32.001Z,73.40
2022-09-03T21:19:29.753Z,73.20
2022-09-03T21:22:06.614Z,73.20
2022-09-03T21:24:53.891Z,73.50
2022-09-03T21:27:25.841Z,73.30
2022-09-03T21:30:04.873Z,73.10
2022-09-03T21:33:03.727Z,73.10
2022-09-03T21:35:37.999Z,72.50
2022-09-03T21:38:08.324Z,72.60
2022-09-03T21:40:43.654Z,72.90
2022-09-03T21:43:40.045Z,72.90
2022-09-03T21:46:26.890Z,73.20
2022-09-03T21:48:58.525Z,73.00
2022-09-03T21:51:31.494Z,73.40
2022-09-03T21:54:10.571Z,73.30
2022-09-03T21:56:55.548Z,73.40
2022-09-03T21:59:40.323Z,73.80
2022-09-03T22:02:25.324Z,74.00
2022-09-03T22:04:53.521Z,73.90
2022-09-03T22:07:45.771Z,74.10
2022-09-03T22:10:32.658Z,74.40
2022-09-03T22:13:17.698Z,74.40
2022-09-03T22:15:51.366Z,74.40
2022-09-03T22:18:29.917Z,75.40
2022-09-03T22:21:13.293Z,74.60
2022-09-03T22:23:55.437Z,74.70
2022-09-03T22:27:00.922Z,74.80
2022-09-03T22:29:35.951Z,75.10
2022-09-03T22:32:26.202Z,75.00
2022-09-03T22:35:13.459Z,75.20
2022-09-03T22:37:47.175Z,75.40
2022-09-03T22:40:45.836Z,75.50
2022-09-03T22:43:38.363Z,75.80
2022-09-03T22:46:23.591Z,75.70
2022-09-03T22:49:12.187Z,75.80
2022-09-03T22:51:45.055Z,76.00
2022-09-03T22:54:44.126Z,76.10
2022-09-03T22:57:13.068Z,76.20
2022-09-03T22:59:45.494Z,76.30
2022-09-03T23:02:26.232Z,76.70
2022-09-03T23:05:23.488Z,76.80
2022-09-03T23:08:40.248Z,77.10
2022-09-03T23:11:25.158Z,77.20
2022-09-03T23:13:57.673Z,77.50
2022-09-03T23:16:37.769Z,77.70
2022-09-03T23:21:56.622Z,77.90
2022-09-03T23:24:42.048Z,78.20
2022-09-03T23:27:14.871Z,78.50
2022-09-03T23:29:43.946Z,78.90
2022-09-03T23:32:10.784Z,78.90
2022-09-03T23:34:40.612Z,79.90
2022-09-03T23:37:33.908Z,79.20
2022-09-03T23:40:25.764Z,79.50
2022-09-03T23:43:22.576Z,79.50
2022-09-03T23:46:07.952Z,79.80
2022-09-03T23:48:41.459Z,79.90
2022-09-03T23:51:35.748Z,80.30
2022-09-03T23:54:11.048Z,80.50
2022-09-03T23:56:47.690Z,80.60
2022-09-03T23:59:49.801Z,80.60
